createdAt,value
2023-03-17T00:00:56.928Z,1.90
2023-03-17T00:06:00.456Z,1.90
2023-03-17T00:11:02.399Z,1.90
2023-03-17T00:16:06.801Z,1.80
2023-03-17T00:21:12.876Z,1.90
2023-03-17T00:26:14.561Z,2.20
2023-03-17T00:31:18.302Z,2.50
2023-03-17T00:36:23.838Z,2.40
2023-03-17T00:41:25.848Z,2.00
2023-03-17T00:46:29.410Z,1.80
2023-03-17T00:51:32.475Z,1.60
2023-03-17T00:56:34.153Z,1.70
2023-03-17T01:01:35.820Z,1.60
2023-03-17T01:06:39.025Z,1.40
2023-03-17T01:11:41.109Z,1.30
2023-03-17T01:16:42.925Z,1.30
2023-03-17T01:21:46.221Z,1.50
2023-03-17T01:26:47.945Z,1.20
2023-03-17T01:31:49.603Z,1.40
2023-03-17T01:36:52.625Z,1.40
2023-03-17T01:41:54.319Z,1.30
2023-03-17T01:46:56.068Z,1.20
2023-03-17T01:52:04.628Z,1.20
2023-03-17T01:57:12.624Z,1.60
2023-03-17T02:02:19.848Z,1.40
2023-03-17T02:07:24.381Z,1.20
2023-03-17T02:12:28.326Z,1.10
2023-03-17T02:17:30.004Z,1.00
2023-03-17T02:22:33.253Z,0.90
2023-03-17T02:27:38.041Z,0.80
2023-03-17T02:32:39.622Z,0.70
2023-03-17T02:37:42.735Z,0.60
2023-03-17T02:42:44.454Z,0.50
2023-03-17T02:47:46.601Z,0.50
2023-03-17T02:52:49.921Z,0.50
2023-03-17T02:57:51.624Z,0.50
2023-03-17T03:02:53.492Z,1.20
2023-03-17T03:07:56.671Z,1.60
2023-03-17T03:12:58.355Z,1.30
2023-03-17T03:17:59.994Z,1.00
2023-03-17T03:23:03.071Z,0.80
2023-03-17T03:28:05.151Z,0.70
2023-03-17T03:33:06.998Z,0.60
2023-03-17T03:38:10.201Z,0.40
2023-03-17T03:43:22.500Z,0.20
2023-03-17T03:48:25.270Z,0.10
2023-03-17T03:53:29.312Z,-0.10
2023-03-17T03:58:31.019Z,0.00
2023-03-17T04:03:32.761Z,-0.30
2023-03-17T04:08:35.966Z,-0.40
2023-03-17T04:13:37.642Z,-0.50
2023-03-17T04:18:39.352Z,-0.50
2023-03-17T04:23:42.433Z,-0.70
2023-03-17T04:28:44.173Z,-0.90
2023-03-17T04:33:45.900Z,-0.80
2023-03-17T04:38:49.361Z,-0.80
2023-03-17T04:43:51.034Z,-0.90
2023-03-17T04:48:52.720Z,-0.80
2023-03-17T04:53:55.780Z,-0.90
2023-03-17T04:58:57.692Z,-0.90
2023-03-17T05:03:59.345Z,-0.90
2023-03-17T05:09:02.804Z,-1.00
2023-03-17T05:14:04.524Z,-1.30
2023-03-17T05:19:06.333Z,-1.20
2023-03-17T05:24:09.407Z,-1.40
2023-03-17T05:29:11.221Z,-1.40
2023-03-17T05:34:13.215Z,-1.40
2023-03-17T05:39:16.288Z,-1.40
2023-03-17T05:44:18.051Z,-1.50
2023-03-17T05:49:19.806Z,-1.30
2023-03-17T05:54:22.830Z,-1.40
2023-03-17T05:59:24.587Z,-1.40
2023-03-17T06:04:26.240Z,-1.40
2023-03-17T06:09:29.472Z,-1.30
2023-03-17T06:14:31.190Z,-1.30
2023-03-17T06:19:32.928Z,-1.20
2023-03-17T06:24:36.261Z,-1.10
2023-03-17T06:29:37.990Z,-1.00
2023-03-17T06:34:39.688Z,-0.60
2023-03-17T06:39:42.900Z,-0.50
2023-03-17T06:45:15.362Z,0.00
2023-03-17T06:50:17.582Z,0.10
2023-03-17T06:55:20.794Z,0.20
2023-03-17T07:00:22.875Z,0.30
2023-03-17T07:05:24.633Z,0.50
2023-03-17T07:10:27.772Z,0.90
2023-03-17T07:15:29.797Z,1.40
2023-03-17T07:20:32.163Z,1.60
2023-03-17T07:25:35.279Z,1.90
2023-03-17T07:30:37.059Z,2.90
2023-03-17T07:35:38.993Z,3.30
2023-03-17T07:40:42.083Z,3.70
2023-03-17T07:45:43.921Z,4.50
2023-03-17T07:50:45.707Z,4.90
2023-03-17T07:55:48.805Z,5.20
2023-03-17T08:00:51.226Z,5.30
2023-03-17T08:05:53.334Z,5.50
2023-03-17T08:11:02.099Z,5.60
2023-03-17T08:16:04.459Z,6.00
2023-03-17T08:21:09.090Z,6.30
2023-03-17T08:26:12.588Z,6.60
2023-03-17T08:31:17.188Z,6.80
2023-03-17T08:36:19.518Z,7.30
2023-03-17T08:41:24.643Z,7.60
2023-03-17T08:46:27.183Z,7.80
2023-03-17T08:51:44.151Z,8.10
2023-03-17T08:56:47.176Z,8.60
2023-03-17T09:01:48.895Z,9.20
2023-03-17T09:07:02.204Z,9.80
2023-03-17T09:12:07.328Z,10.30
2023-03-17T09:17:09.057Z,11.10
2023-03-17T09:22:13.882Z,11.60
2023-03-17T09:27:16.944Z,11.80
2023-03-17T09:32:18.684Z,12.30
2023-03-17T09:37:20.436Z,12.50
2023-03-17T09:42:39.385Z,12.90
2023-03-17T09:47:56.068Z,13.00
2023-03-17T09:53:00.036Z,13.30
2023-03-17T09:58:04.536Z,13.80
2023-03-17T10:03:09.992Z,13.10
2023-03-17T10:08:30.136Z,13.40
2023-03-17T10:13:47.547Z,13.60
2023-03-17T10:18:54.040Z,13.70
2023-03-17T10:23:56.762Z,13.70
2023-03-17T10:29:01.223Z,13.90
2023-03-17T10:39:21.436Z,14.40
2023-03-17T10:44:35.724Z,14.60
2023-03-17T10:49:37.438Z,15.00
2023-03-17T10:54:39.173Z,15.40
2023-03-17T10:59:48.221Z,15.80
2023-03-17T11:04:50.131Z,16.00
2023-03-17T11:09:56.905Z,16.10
2023-03-17T11:15:03.384Z,16.40
2023-03-17T11:20:19.296Z,16.90
2023-03-17T11:25:21.247Z,17.00
2023-03-17T11:30:31.320Z,17.00
2023-03-17T11:35:43.964Z,16.80
2023-03-17T11:40:58.145Z,16.70
2023-03-17T11:46:05.985Z,16.50
2023-03-17T11:51:17.890Z,16.60
2023-03-17T11:56:22.146Z,17.00
2023-03-17T12:01:28.929Z,17.60
2023-03-17T12:06:34.210Z,17.30
2023-03-17T12:11:40.249Z,17.20
2023-03-17T12:16:49.912Z,17.40
2023-03-17T12:21:54.485Z,17.40
2023-03-17T12:26:59.500Z,17.10
2023-03-17T12:32:06.905Z,16.90
2023-03-17T12:37:08.860Z,16.80
2023-03-17T12:42:22.099Z,16.50
2023-03-17T12:47:43.655Z,16.30
2023-03-17T12:53:11.359Z,16.20
2023-03-17T12:58:26.824Z,16.30
2023-03-17T13:03:32.652Z,16.30
2023-03-17T13:08:36.943Z,16.30
2023-03-17T13:13:46.086Z,16.30
2023-03-17T13:18:50.226Z,16.30
2023-03-17T13:23:59.334Z,16.30
2023-03-17T13:29:02.800Z,16.60
2023-03-17T13:34:14.558Z,16.70
2023-03-17T13:39:44.902Z,16.60
2023-03-17T13:45:22.900Z,16.70
2023-03-17T13:50:31.963Z,16.70
2023-03-17T13:55:38.957Z,16.70
2023-03-17T14:00:43.125Z,16.50
2023-03-17T14:05:50.719Z,16.50
2023-03-17T14:10:54.405Z,16.40
2023-03-17T14:16:01.120Z,16.50
2023-03-17T14:21:10.534Z,16.50
2023-03-17T14:26:13.568Z,16.60
2023-03-17T14:31:22.513Z,16.50
2023-03-17T14:36:26.970Z,16.40
2023-03-17T14:41:29.248Z,16.40
2023-03-17T14:46:33.341Z,16.30
2023-03-17T14:51:39.047Z,16.20
2023-03-17T14:56:43.237Z,16.10
2023-03-17T15:01:45.964Z,15.90
2023-03-17T15:06:50.991Z,15.80
2023-03-17T15:11:55.707Z,15.70
2023-03-17T15:16:58.193Z,15.60
2023-03-17T15:22:05.708Z,15.40
2023-03-17T15:27:14.302Z,15.50
2023-03-17T15:32:17.821Z,15.40
2023-03-17T15:37:22.918Z,15.30
2023-03-17T15:42:26.303Z,15.30
2023-03-17T15:47:30.805Z,15.20
2023-03-17T15:52:33.998Z,15.10
2023-03-17T15:57:35.711Z,15.20
2023-03-17T16:02:37.629Z,15.10
2023-03-17T16:07:40.971Z,15.00
2023-03-17T16:12:42.743Z,15.00
2023-03-17T16:17:45.854Z,14.90
2023-03-17T16:22:49.219Z,14.80
2023-03-17T16:27:52.260Z,14.70
2023-03-17T16:32:55.061Z,14.50
2023-03-17T16:37:58.119Z,14.20
2023-03-17T16:42:59.892Z,14.00
2023-03-17T16:48:03.311Z,13.70
2023-03-17T16:53:06.458Z,13.50
2023-03-17T16:58:15.657Z,13.20
2023-03-17T17:03:17.768Z,12.80
2023-03-17T17:08:21.018Z,12.50
2023-03-17T17:13:22.733Z,12.30
2023-03-17T17:18:24.416Z,12.00
2023-03-17T17:23:27.600Z,11.90
2023-03-17T17:28:29.384Z,11.80
2023-03-17T17:33:31.091Z,11.50
2023-03-17T17:38:34.216Z,11.70
2023-03-17T17:43:36.037Z,11.70
2023-03-17T17:48:40.691Z,11.50
2023-03-17T17:53:43.997Z,11.40
2023-03-17T17:58:46.102Z,11.40
2023-03-17T18:03:48.246Z,11.40
2023-03-17T18:08:51.382Z,11.00
2023-03-17T18:13:53.332Z,10.70
2023-03-17T18:18:55.102Z,10.50
2023-03-17T18:23:58.089Z,10.40
2023-03-17T18:29:00.056Z,10.10
2023-03-17T18:34:07.197Z,10.00
2023-03-17T18:39:10.337Z,9.70
2023-03-17T18:44:11.970Z,9.50
2023-03-17T18:49:13.686Z,9.30
2023-03-17T18:54:16.820Z,9.10
2023-03-17T18:59:18.580Z,9.00
2023-03-17T19:04:20.558Z,9.00
2023-03-17T19:09:23.675Z,9.00
2023-03-17T19:14:25.310Z,9.10
2023-03-17T19:19:27.049Z,9.30
2023-03-17T19:24:30.630Z,9.40
2023-03-17T19:29:32.731Z,9.60
2023-03-17T19:34:37.205Z,9.70
2023-03-17T19:39:40.461Z,9.80
2023-03-17T19:44:45.234Z,9.80
2023-03-17T19:49:46.935Z,9.80
2023-03-17T19:54:52.378Z,9.70
2023-03-17T20:00:01.734Z,9.70
2023-03-17T20:10:25.502Z,9.60
2023-03-17T20:15:27.264Z,9.60
2023-03-17T20:20:39.135Z,9.40
2023-03-17T20:25:42.165Z,9.20
2023-03-17T20:30:52.917Z,9.00
2023-03-17T20:36:01.372Z,8.90
2023-03-17T20:41:16.539Z,8.90
2023-03-17T20:46:29.680Z,8.70
2023-03-17T20:51:33.472Z,8.60
2023-03-17T20:56:46.883Z,8.60
2023-03-17T21:01:54.561Z,8.50
2023-03-17T21:06:56.403Z,8.50
2023-03-17T21:12:01.978Z,8.30
2023-03-17T21:17:03.819Z,8.10
2023-03-17T21:22:06.043Z,8.00
2023-03-17T21:27:10.627Z,7.90
2023-03-17T21:32:15.399Z,7.80
2023-03-17T21:37:20.036Z,7.80
2023-03-17T21:42:23.346Z,7.80
2023-03-17T21:47:25.113Z,7.90
2023-03-17T21:52:30.026Z,7.90
2023-03-17T21:57:33.144Z,7.80
2023-03-17T22:02:35.051Z,7.70
2023-03-17T22:07:36.999Z,7.60
2023-03-17T22:12:40.193Z,7.50
2023-03-17T22:17:41.835Z,7.40
2023-03-17T22:22:43.512Z,7.40
2023-03-17T22:27:46.522Z,7.30
2023-03-17T22:32:48.294Z,7.30
2023-03-17T22:37:52.765Z,7.40
2023-03-17T22:42:56.841Z,7.50
2023-03-17T22:47:58.473Z,7.50
2023-03-17T22:53:00.131Z,7.50
2023-03-17T22:58:03.218Z,7.60
2023-03-17T23:03:04.910Z,7.60
2023-03-17T23:08:06.554Z,7.70
2023-03-17T23:13:09.853Z,7.70
2023-03-17T23:18:11.679Z,7.80
2023-03-17T23:23:13.429Z,7.70
2023-03-17T23:28:16.552Z,7.70
2023-03-17T23:33:18.776Z,7.60
2023-03-17T23:38:20.690Z,7.70
2023-03-17T23:43:23.994Z,7.70
2023-03-17T23:48:25.960Z,7.80
2023-03-17T23:53:27.785Z,7.80
2023-03-17T23:58:30.907Z,7.90
